Holden Beach, NC (28462)

2:13 PM EST on January 30, 2015 (GMT -0500)
Winding River Plantation | Change Station
CLOSE
Current Station
Personal Weather Station
Location: Bolivia, NC
Elevation: 16 ft
Nearby Weather Stations

Elev 16 ft 33.98 °N, 78.25 °W | Updated 9 minutes ago

Partly Cloudy
Partly Cloudy
53.1 °F
Feels Like 53.1 °F
N
11.9
Wind Variable Wind from NNE

Today
High -- | Low -- °F
--% Chance of Precip.
Yesterday
High -- | Low -- °F
Precip. -- in
7:11 AM 5:41 PM
Waxing Gibbous, 84% visible
Pressure 30.06 in
Visibility 10.0 miles
Clouds Scattered Clouds 5500 ft
Dew Point 29 °F
Humidity 39%
Rainfall 0.04 in
Snow Depth Not available.
UV 4 out of 12
Pollen 2.20 out of 12
Air Quality Not available.
Flu Activity Not available.
METAR KSUT 301855Z AUTO 33013G25KT 10SM SCT055 11/M02 A3006 RMK AO2 T01101024

More Conditions Fewer Conditions

Pressure 30.06 in
Visibility 10.0 miles
Clouds Scattered Clouds 5500 ft
Dew Point 29 °F
Humidity 39%
Rainfall 0.04 in
Snow Depth Not available.
UV 4 out of 12
Pollen 2.20 out of 12
Air Quality Not available.
Flu Activity Not available.
METAR KSUT 301855Z AUTO 33013G25KT 10SM SCT055 11/M02 A3006 RMK AO2 T01101024

More Conditions Fewer Conditions

10-Day Weather Forecast

Almanac

Astronomy

Jan. 30, 2015 Rise Set
Actual Time
Civil Twilight
Nautical Twilight
Astronomical Twilight
Moon
Length of Visible Light
Length of Day
Tomorrow will be .
, % of the Moon is Illuminated

Today's Extremes

State Highs State Lows

Community

WunderPhotos

Upload Photos

1,791,868 photos uploaded!

WunderBlogs® & News

Nearby

Air Quality

  Air Quality AQ Index Pollutant
Not available.

Snow Depth

Station Depth Elevation

Earthquake Activity

City Distance Mag. Time & Date
Minimum magnitude displayed is 2.5.

Coastal Water Temperatures

Place Temperature

Nearby Weather Stations